createdAt,value
2018-06-05T00:01:47.295Z,9.60
2018-06-05T00:04:15.856Z,9.97
2018-06-05T00:06:44.070Z,8.60
2018-06-05T00:09:12.242Z,9.60
2018-06-05T00:11:40.322Z,9.57
2018-06-05T00:14:08.477Z,10.23
2018-06-05T00:16:36.644Z,10.40
2018-06-05T00:19:04.830Z,10.87
2018-06-05T00:21:33.262Z,11.17
2018-06-05T00:24:01.462Z,11.50
2018-06-05T00:26:30.204Z,11.83
2018-06-05T00:28:59.005Z,10.93
2018-06-05T00:31:27.149Z,9.97
2018-06-05T00:33:56.275Z,11.47
2018-06-05T00:36:24.394Z,9.57
2018-06-05T00:38:52.611Z,10.43
2018-06-05T00:41:20.762Z,10.43
2018-06-05T00:43:49.149Z,9.73
2018-06-05T00:46:17.378Z,9.67
2018-06-05T00:48:45.689Z,9.23
2018-06-05T00:51:26.191Z,10.07
2018-06-05T00:53:54.544Z,8.93
2018-06-05T00:56:23.362Z,8.33
2018-06-05T00:58:51.341Z,9.37
2018-06-05T01:01:19.465Z,8.43
2018-06-05T01:03:48.709Z,8.93
2018-06-05T01:06:16.649Z,8.13
2018-06-05T01:08:45.357Z,8.03
2018-06-05T01:11:13.530Z,7.83
2018-06-05T01:13:41.677Z,6.97
2018-06-05T01:16:10.625Z,7.37
2018-06-05T01:18:38.520Z,7.03
2018-06-05T01:21:06.973Z,7.13
2018-06-05T01:23:35.475Z,6.33
2018-06-05T01:26:03.696Z,6.30
2018-06-05T01:28:31.921Z,6.20
2018-06-05T01:31:00.056Z,5.80
2018-06-05T01:33:28.297Z,5.53
2018-06-05T01:35:56.505Z,6.30
2018-06-05T01:38:24.509Z,6.00
2018-06-05T01:40:52.620Z,5.70
2018-06-05T01:43:20.701Z,6.07
2018-06-05T01:45:48.830Z,5.10
2018-06-05T01:48:17.585Z,5.27
2018-06-05T01:50:46.246Z,5.53
2018-06-05T01:53:14.327Z,6.00
2018-06-05T01:55:43.242Z,6.00
2018-06-05T01:58:11.297Z,4.97
2018-06-05T02:00:40.110Z,5.40
2018-06-05T02:03:08.452Z,4.87
2018-06-05T02:05:37.367Z,5.40
2018-06-05T02:08:05.507Z,5.33
2018-06-05T02:10:33.666Z,5.37
2018-06-05T02:13:02.445Z,5.30
2018-06-05T02:15:30.658Z,5.47
2018-06-05T02:17:58.733Z,5.17
2018-06-05T02:20:27.931Z,5.50
2018-06-05T02:22:56.058Z,5.23
2018-06-05T02:25:24.289Z,5.47
2018-06-05T02:27:52.782Z,4.90
2018-06-05T02:30:21.694Z,5.17
2018-06-05T02:32:49.615Z,5.27
2018-06-05T02:35:17.782Z,5.27
2018-06-05T02:37:46.068Z,4.83
2018-06-05T02:40:14.224Z,5.27
2018-06-05T02:42:42.457Z,4.53
2018-06-05T02:45:12.302Z,4.80
2018-06-05T02:47:40.393Z,4.63
2018-06-05T02:50:09.273Z,5.20
2018-06-05T02:52:37.561Z,5.07
2018-06-05T02:55:07.071Z,4.77
2018-06-05T02:57:35.969Z,5.13
2018-06-05T03:00:04.298Z,4.90
2018-06-05T03:02:32.378Z,4.70
2018-06-05T03:05:00.599Z,5.13
2018-06-05T03:07:29.389Z,4.67
2018-06-05T03:09:57.550Z,4.13
2018-06-05T03:12:26.558Z,5.00
2018-06-05T03:14:54.752Z,4.80
2018-06-05T03:17:23.392Z,4.43
2018-06-05T03:19:51.760Z,5.17
2018-06-05T03:22:20.756Z,5.20
2018-06-05T03:24:49.086Z,4.83
2018-06-05T03:27:17.187Z,4.77
2018-06-05T03:29:45.411Z,4.67
2018-06-05T03:32:13.526Z,4.97
2018-06-05T03:34:41.703Z,5.00
2018-06-05T03:37:10.832Z,4.70
2018-06-05T03:39:40.358Z,4.97
2018-06-05T03:42:09.210Z,4.53
2018-06-05T03:44:37.453Z,4.50
2018-06-05T03:47:05.883Z,4.60
2018-06-05T03:49:40.067Z,4.37
2018-06-05T03:52:08.137Z,4.43
2018-06-05T03:54:37.167Z,4.50
2018-06-05T03:57:05.968Z,4.83
2018-06-05T03:59:33.955Z,4.37
2018-06-05T04:02:04.278Z,4.07
2018-06-05T04:04:32.661Z,4.93
2018-06-05T04:07:01.346Z,4.73
2018-06-05T04:09:29.833Z,4.40
2018-06-05T04:11:58.228Z,4.17
2018-06-05T04:14:26.346Z,3.93
2018-06-05T04:16:54.469Z,3.77
2018-06-05T04:19:22.653Z,4.47
2018-06-05T04:21:50.795Z,4.00
2018-06-05T04:24:19.171Z,3.90
2018-06-05T04:26:47.323Z,4.00
2018-06-05T04:29:17.188Z,3.50
2018-06-05T04:31:45.412Z,4.10
2018-06-05T04:34:13.718Z,3.60
2018-06-05T04:36:41.873Z,3.60
2018-06-05T04:39:09.966Z,3.40
2018-06-05T04:41:38.349Z,3.43
2018-06-05T04:44:06.541Z,3.27
2018-06-05T04:46:34.686Z,3.00
2018-06-05T04:49:02.883Z,3.40
2018-06-05T04:51:31.063Z,3.40
2018-06-05T04:53:59.409Z,3.13
2018-06-05T04:56:27.518Z,3.27
2018-06-05T04:58:55.505Z,3.37
2018-06-05T05:01:24.648Z,3.53
2018-06-05T05:03:53.244Z,3.20
2018-06-05T05:06:22.237Z,3.40
2018-06-05T05:08:50.354Z,3.20
2018-06-05T05:11:18.590Z,3.47
2018-06-05T05:13:46.831Z,2.93
2018-06-05T05:16:15.171Z,3.40
2018-06-05T05:18:43.325Z,3.30
2018-06-05T05:21:12.174Z,3.23
2018-06-05T05:23:40.423Z,3.37
2018-06-05T05:26:08.370Z,2.93
2018-06-05T05:28:37.782Z,3.07
2018-06-05T05:31:06.656Z,4.50
2018-06-05T05:33:34.845Z,3.57
2018-06-05T05:36:02.930Z,3.33
2018-06-05T05:38:31.245Z,3.07
2018-06-05T05:40:59.430Z,2.93
2018-06-05T05:43:27.635Z,3.35
2018-06-05T05:45:55.814Z,3.10
2018-06-05T05:48:24.160Z,2.83
2018-06-05T05:50:52.658Z,3.20
2018-06-05T05:53:21.239Z,2.60
2018-06-05T05:55:49.451Z,2.90
2018-06-05T05:58:17.647Z,3.00
2018-06-05T06:00:45.890Z,2.63
2018-06-05T06:03:14.346Z,3.00
2018-06-05T06:05:42.527Z,3.10
2018-06-05T06:08:10.722Z,3.10
2018-06-05T06:10:38.841Z,2.80
2018-06-05T06:13:06.963Z,2.45
2018-06-05T06:15:35.134Z,3.15
2018-06-05T06:18:03.211Z,2.70
2018-06-05T06:20:31.122Z,3.30
2018-06-05T06:22:59.342Z,2.60
2018-06-05T06:25:27.511Z,3.00
2018-06-05T06:27:55.665Z,2.62
2018-06-05T06:30:23.948Z,3.33
2018-06-05T06:32:52.717Z,2.37
2018-06-05T06:35:21.720Z,3.02
2018-06-05T06:37:49.950Z,3.25
2018-06-05T06:40:17.894Z,2.83
2018-06-05T06:42:46.045Z,2.62
2018-06-05T06:45:14.262Z,2.70
2018-06-05T06:47:42.964Z,2.92
2018-06-05T06:50:11.127Z,2.70
2018-06-05T06:52:39.937Z,2.87
2018-06-05T06:55:08.354Z,2.60
2018-06-05T06:57:38.721Z,2.77
2018-06-05T07:00:06.653Z,3.20
2018-06-05T07:02:35.285Z,2.83
2018-06-05T07:05:03.968Z,3.02
2018-06-05T07:07:32.759Z,2.60
2018-06-05T07:10:01.005Z,3.35
2018-06-05T07:12:30.406Z,2.77
2018-06-05T07:14:59.548Z,2.62
2018-06-05T07:17:27.589Z,3.40
2018-06-05T07:19:55.887Z,2.75
2018-06-05T07:22:24.005Z,2.37
2018-06-05T07:24:52.146Z,2.27
2018-06-05T07:27:20.434Z,2.77
2018-06-05T07:29:49.069Z,2.60
2018-06-05T07:32:17.201Z,1.98
2018-06-05T07:34:45.409Z,2.02
2018-06-05T07:37:13.563Z,2.33
2018-06-05T07:39:41.846Z,2.33
2018-06-05T07:42:09.933Z,2.33
2018-06-05T07:44:38.094Z,2.33
2018-06-05T07:47:06.383Z,2.10
2018-06-05T07:49:34.642Z,2.42
2018-06-05T07:52:02.858Z,1.90
2018-06-05T07:54:35.223Z,2.30
2018-06-05T07:57:03.813Z,2.17
2018-06-05T07:59:32.365Z,2.33
2018-06-05T08:02:00.936Z,2.10
2018-06-05T08:04:30.309Z,1.77
2018-06-05T08:06:58.270Z,2.00
2018-06-05T08:09:26.202Z,1.70
2018-06-05T08:11:55.343Z,1.95
2018-06-05T08:14:23.858Z,1.90
2018-06-05T08:16:52.351Z,1.52
2018-06-05T08:19:20.734Z,2.02
2018-06-05T08:21:49.020Z,1.60
2018-06-05T08:24:17.125Z,1.90
2018-06-05T08:26:49.117Z,1.98
2018-06-05T08:29:18.479Z,1.70
2018-06-05T08:31:47.090Z,1.70
2018-06-05T08:34:15.044Z,1.80
2018-06-05T08:36:43.653Z,1.42
2018-06-05T08:39:12.071Z,1.90
2018-06-05T08:41:41.290Z,1.67
2018-06-05T08:44:09.914Z,1.70
2018-06-05T08:46:38.170Z,1.98
2018-06-05T08:49:06.282Z,1.57
2018-06-05T08:51:34.565Z,2.45
2018-06-05T08:54:02.774Z,1.92
2018-06-05T08:56:30.961Z,1.90
2018-06-05T08:58:59.117Z,1.30
2018-06-05T09:01:27.815Z,1.47
2018-06-05T09:03:56.263Z,1.57
2018-06-05T09:06:24.440Z,1.42
2018-06-05T09:08:52.635Z,1.65
2018-06-05T09:11:20.750Z,1.55
2018-06-05T09:13:48.814Z,1.37
2018-06-05T09:16:17.830Z,1.72
2018-06-05T09:18:45.997Z,1.30
2018-06-05T09:21:14.232Z,1.80
2018-06-05T09:23:42.714Z,1.35
2018-06-05T09:26:11.090Z,1.55
2018-06-05T09:28:40.330Z,1.65
2018-06-05T09:31:08.494Z,1.22
2018-06-05T09:33:36.863Z,1.77
2018-06-05T09:36:05.827Z,1.25
2018-06-05T09:38:34.430Z,1.30
2018-06-05T09:41:02.678Z,1.75
2018-06-05T09:43:30.985Z,1.50
2018-06-05T09:45:59.069Z,1.40
2018-06-05T09:48:27.184Z,1.55
2018-06-05T09:50:55.495Z,1.22
2018-06-05T09:53:23.660Z,1.37
2018-06-05T09:55:51.849Z,1.60
2018-06-05T09:58:20.218Z,1.40
2018-06-05T10:00:51.584Z,1.27
2018-06-05T10:03:20.875Z,1.50
2018-06-05T10:05:49.094Z,1.50
2018-06-05T10:08:17.058Z,1.57
2018-06-05T10:10:45.642Z,1.40
2018-06-05T10:13:13.513Z,1.52
2018-06-05T10:15:41.771Z,1.40
2018-06-05T10:18:11.366Z,1.57
2018-06-05T10:20:40.039Z,0.90
2018-06-05T10:23:09.993Z,1.35
2018-06-05T10:25:38.224Z,1.35
2018-06-05T10:28:06.744Z,1.55
2018-06-05T10:30:35.169Z,1.37
2018-06-05T10:33:03.291Z,1.60
2018-06-05T10:35:31.490Z,1.52
2018-06-05T10:37:59.651Z,4.47
2018-06-05T10:40:28.902Z,1.70
2018-06-05T10:42:57.178Z,1.72
2018-06-05T10:45:26.184Z,1.40
2018-06-05T10:47:54.438Z,1.42
2018-06-05T10:50:22.757Z,1.42
2018-06-05T10:52:51.225Z,1.37
2018-06-05T10:55:19.354Z,1.20
2018-06-05T10:57:47.485Z,1.27
2018-06-05T11:00:15.708Z,1.17
2018-06-05T11:02:43.870Z,1.32
2018-06-05T11:05:11.757Z,1.35
2018-06-05T11:07:41.138Z,1.32
2018-06-05T11:10:09.226Z,1.02
2018-06-05T11:12:37.096Z,1.15
2018-06-05T11:15:05.190Z,1.25
2018-06-05T11:17:33.422Z,1.30
2018-06-05T11:20:01.782Z,1.22
2018-06-05T11:22:29.892Z,1.00
2018-06-05T11:24:57.838Z,1.50
2018-06-05T11:27:26.224Z,1.12
2018-06-05T11:29:54.405Z,1.02
2018-06-05T11:32:22.569Z,0.85
2018-06-05T11:34:50.914Z,0.98
2018-06-05T11:37:20.121Z,1.20
2018-06-05T11:39:48.954Z,1.15
2018-06-05T11:42:16.893Z,1.30
2018-06-05T11:44:44.990Z,1.32
2018-06-05T11:47:13.216Z,1.22
2018-06-05T11:49:41.518Z,1.37
2018-06-05T11:52:09.652Z,1.20
2018-06-05T11:54:37.961Z,1.57
2018-06-05T11:57:06.175Z,1.37
2018-06-05T11:59:34.432Z,1.40
2018-06-05T12:02:03.870Z,1.30
2018-06-05T12:04:33.210Z,1.45
2018-06-05T12:07:01.395Z,1.87
2018-06-05T12:09:29.743Z,1.57
2018-06-05T12:11:58.893Z,1.57
2018-06-05T12:14:27.989Z,1.52
2018-06-05T12:16:57.126Z,1.40
2018-06-05T12:19:25.925Z,1.20
2018-06-05T12:21:54.661Z,1.50
2018-06-05T12:24:22.962Z,2.02
2018-06-05T12:26:51.447Z,1.60
2018-06-05T12:29:19.509Z,1.65
2018-06-05T12:31:47.941Z,2.00
2018-06-05T12:34:16.131Z,1.92
2018-06-05T12:36:44.334Z,1.62
2018-06-05T12:39:12.465Z,1.90
2018-06-05T12:41:40.605Z,2.10
2018-06-05T12:44:08.701Z,1.85
2018-06-05T12:46:37.012Z,2.40
2018-06-05T12:49:05.297Z,2.30
2018-06-05T12:51:33.519Z,1.98
2018-06-05T12:54:02.246Z,1.80
2018-06-05T12:56:31.631Z,1.87
2018-06-05T12:58:59.941Z,1.90
2018-06-05T13:01:28.147Z,1.95
2018-06-05T13:03:56.417Z,2.15
2018-06-05T13:06:24.624Z,1.95
2018-06-05T13:08:52.707Z,2.30
2018-06-05T13:11:20.834Z,1.98
2018-06-05T13:13:49.430Z,2.15
2018-06-05T13:16:17.693Z,2.10
2018-06-05T13:18:45.838Z,1.98
2018-06-05T13:21:13.998Z,2.40
2018-06-05T13:23:42.685Z,2.60
2018-06-05T13:26:10.959Z,2.37
2018-06-05T13:28:39.474Z,2.37
2018-06-05T13:31:07.632Z,2.80
2018-06-05T13:33:35.907Z,2.67
2018-06-05T13:36:04.292Z,2.45
2018-06-05T13:38:32.461Z,2.35
2018-06-05T13:41:03.019Z,2.52
2018-06-05T13:43:31.269Z,2.50
2018-06-05T13:45:59.842Z,2.70
2018-06-05T13:48:28.310Z,2.87
2018-06-05T13:50:56.618Z,3.00
2018-06-05T13:53:24.714Z,2.95
2018-06-05T13:55:52.986Z,3.22
2018-06-05T13:58:21.326Z,2.98
2018-06-05T14:00:49.468Z,2.72
2018-06-05T14:03:17.594Z,2.92
2018-06-05T14:05:45.973Z,2.65
2018-06-05T14:08:14.178Z,2.70
2018-06-05T14:10:42.839Z,2.70
2018-06-05T14:13:11.162Z,2.70
2018-06-05T14:15:39.623Z,3.10
2018-06-05T14:18:07.881Z,3.00
2018-06-05T14:20:37.410Z,2.60
2018-06-05T14:23:05.597Z,2.60
2018-06-05T14:25:34.137Z,2.77
2018-06-05T14:28:02.464Z,2.58
2018-06-05T14:30:30.646Z,2.98
2018-06-05T14:32:58.903Z,3.67
2018-06-05T14:35:27.161Z,3.02
2018-06-05T14:37:55.416Z,3.55
2018-06-05T14:40:24.807Z,3.12
2018-06-05T14:42:53.098Z,2.92
2018-06-05T14:45:22.171Z,2.92
2018-06-05T14:47:50.590Z,2.83
2018-06-05T14:50:19.159Z,3.30
2018-06-05T14:52:47.361Z,2.60
2018-06-05T14:55:16.911Z,3.17
2018-06-05T14:57:45.004Z,3.12
2018-06-05T15:00:13.489Z,3.08
2018-06-05T15:02:42.542Z,3.05
2018-06-05T15:05:10.993Z,3.17
2018-06-05T15:07:39.319Z,2.92
2018-06-05T15:10:07.993Z,3.10
2018-06-05T15:12:36.249Z,2.65
2018-06-05T15:15:04.805Z,2.62
2018-06-05T15:17:33.060Z,3.08
2018-06-05T15:20:01.758Z,2.80
2018-06-05T15:22:30.626Z,2.60
2018-06-05T15:24:58.841Z,2.65
2018-06-05T15:27:27.074Z,2.75
2018-06-05T15:29:55.382Z,3.15
2018-06-05T15:32:24.095Z,2.70
2018-06-05T15:34:52.289Z,3.10
2018-06-05T15:37:20.446Z,2.70
2018-06-05T15:39:49.108Z,3.17
2018-06-05T15:42:17.294Z,2.70
2018-06-05T15:44:45.748Z,3.02
2018-06-05T15:47:14.177Z,3.02
2018-06-05T15:49:46.836Z,3.22
2018-06-05T15:52:15.435Z,2.83
2018-06-05T15:54:44.222Z,3.37
2018-06-05T15:57:13.051Z,2.98
2018-06-05T15:59:41.454Z,2.92
2018-06-05T16:02:10.081Z,2.98
2018-06-05T16:04:42.319Z,3.08
2018-06-05T16:07:11.293Z,2.95
2018-06-05T16:09:39.534Z,3.33
2018-06-05T16:12:08.156Z,3.17
2018-06-05T16:14:37.043Z,3.20
2018-06-05T16:17:05.297Z,2.92
2018-06-05T16:19:33.826Z,2.95
2018-06-05T16:22:02.185Z,3.45
2018-06-05T16:24:30.642Z,4.00
2018-06-05T16:26:58.959Z,3.27
2018-06-05T16:29:27.418Z,3.40
2018-06-05T16:31:55.667Z,3.17
2018-06-05T16:34:23.876Z,2.80
2018-06-05T16:36:52.137Z,2.70
2018-06-05T16:39:20.633Z,3.00
2018-06-05T16:41:48.934Z,3.17
2018-06-05T16:44:17.101Z,3.50
2018-06-05T16:46:46.052Z,3.27
2018-06-05T16:49:14.357Z,3.50
2018-06-05T16:51:42.685Z,3.22
2018-06-05T16:54:10.829Z,3.77
2018-06-05T16:56:39.695Z,3.70
2018-06-05T16:59:08.082Z,3.60
2018-06-05T17:01:36.385Z,3.70
2018-06-05T17:04:04.563Z,3.90
2018-06-05T17:06:32.869Z,4.30
2018-06-05T17:09:01.015Z,3.30
2018-06-05T17:11:29.633Z,3.40
2018-06-05T17:13:58.598Z,3.90
2018-06-05T17:16:27.348Z,3.50
2018-06-05T17:18:56.482Z,3.80
2018-06-05T17:21:24.858Z,3.72
2018-06-05T17:23:53.050Z,4.10
2018-06-05T17:26:21.228Z,3.25
2018-06-05T17:28:49.122Z,3.98
2018-06-05T17:31:17.379Z,3.65
2018-06-05T17:33:45.757Z,3.58
2018-06-05T17:36:13.899Z,3.77
2018-06-05T17:38:42.033Z,3.92
2018-06-05T17:41:10.277Z,3.87
2018-06-05T17:43:38.815Z,3.87
2018-06-05T17:46:06.905Z,3.92
2018-06-05T17:48:35.342Z,4.00
2018-06-05T17:51:03.628Z,4.00
2018-06-05T17:53:32.130Z,3.60
2018-06-05T17:56:00.522Z,4.00
2018-06-05T17:59:58.109Z,3.92
2018-06-05T18:02:26.826Z,4.15
2018-06-05T18:04:55.460Z,5.03
2018-06-05T18:07:23.587Z,4.15
2018-06-05T18:09:52.016Z,3.62
2018-06-05T18:12:20.757Z,4.00
2018-06-05T18:14:49.848Z,3.92
2018-06-05T18:17:18.008Z,4.25
2018-06-05T18:19:46.569Z,4.17
2018-06-05T18:22:14.761Z,4.47
2018-06-05T18:24:43.170Z,5.00
2018-06-05T18:27:11.455Z,5.00
2018-06-05T18:29:40.030Z,5.08
2018-06-05T18:32:08.105Z,5.42
2018-06-05T18:34:36.428Z,5.30
2018-06-05T18:37:04.878Z,5.22
2018-06-05T18:39:33.305Z,5.83
2018-06-05T18:42:01.667Z,5.47
2018-06-05T18:44:30.103Z,5.85
2018-06-05T18:46:59.573Z,5.75
2018-06-05T18:49:27.811Z,5.75
2018-06-05T18:51:55.916Z,7.05
2018-06-05T18:54:24.129Z,6.30
2018-06-05T18:56:52.235Z,6.03
2018-06-05T18:59:20.359Z,6.42
2018-06-05T19:01:48.305Z,6.55
2018-06-05T19:04:16.527Z,6.50
2018-06-05T19:06:44.739Z,6.12
2018-06-05T19:09:13.085Z,6.03
2018-06-05T19:11:41.386Z,6.35
2018-06-05T19:14:09.794Z,6.75
2018-06-05T19:16:38.024Z,6.87
2018-06-05T19:19:06.387Z,6.72
2018-06-05T19:21:34.429Z,6.50
2018-06-05T19:24:03.564Z,6.50
2018-06-05T19:26:32.520Z,6.67
2018-06-05T19:29:00.925Z,6.35
2018-06-05T19:31:29.785Z,7.33
2018-06-05T19:33:58.375Z,6.60
2018-06-05T19:36:26.532Z,6.30
2018-06-05T19:38:55.158Z,7.15
2018-06-05T19:41:23.547Z,7.25
2018-06-05T19:43:52.344Z,7.25
2018-06-05T19:46:20.714Z,6.80
2018-06-05T19:48:50.634Z,6.15
2018-06-05T19:51:19.061Z,5.85
2018-06-05T19:53:52.011Z,5.85
2018-06-05T19:56:21.185Z,5.85
2018-06-05T19:58:51.193Z,6.15
2018-06-05T20:01:19.978Z,5.60
2018-06-05T20:03:48.154Z,5.47
2018-06-05T20:06:16.318Z,4.83
2018-06-05T20:08:44.583Z,4.78
2018-06-05T20:11:13.355Z,5.33
2018-06-05T20:13:41.653Z,5.00
2018-06-05T20:16:10.007Z,4.42
2018-06-05T20:18:38.358Z,4.10
2018-06-05T20:21:06.841Z,4.43
2018-06-05T20:23:35.182Z,3.50
2018-06-05T20:26:04.526Z,3.50
2018-06-05T20:28:32.497Z,3.42
2018-06-05T20:31:00.999Z,3.27
2018-06-05T20:33:29.617Z,2.90
2018-06-05T20:35:58.522Z,2.67
2018-06-05T20:38:26.684Z,2.60
2018-06-05T20:40:54.903Z,2.23
2018-06-05T20:43:23.562Z,2.15
2018-06-05T20:45:51.729Z,1.95
2018-06-05T20:48:22.952Z,2.30
2018-06-05T20:50:51.879Z,1.75
2018-06-05T20:53:20.366Z,2.20
2018-06-05T20:55:48.547Z,1.65
2018-06-05T20:58:16.506Z,1.77
2018-06-05T21:00:45.346Z,1.63
2018-06-05T21:03:14.045Z,1.60
2018-06-05T21:05:42.203Z,1.43
2018-06-05T21:08:10.445Z,1.70
2018-06-05T21:10:38.722Z,1.40
2018-06-05T21:13:06.875Z,1.50
2018-06-05T21:15:35.006Z,1.70
2018-06-05T21:18:03.982Z,1.60
2018-06-05T21:20:32.613Z,1.80
2018-06-05T21:23:01.596Z,1.43
2018-06-05T21:25:29.887Z,1.30
2018-06-05T21:27:58.146Z,1.40
2018-06-05T21:30:26.384Z,1.30
2018-06-05T21:32:54.710Z,1.33
2018-06-05T21:35:23.377Z,1.10
2018-06-05T21:37:51.604Z,1.27
2018-06-05T21:40:19.839Z,1.00
2018-06-05T21:42:48.328Z,1.13
2018-06-05T21:45:17.218Z,1.10
2018-06-05T21:47:45.397Z,1.17
2018-06-05T21:50:13.609Z,1.03
2018-06-05T21:52:42.510Z,1.07
2018-06-05T21:55:11.119Z,1.10
2018-06-05T21:57:39.374Z,1.10
2018-06-05T22:00:08.415Z,1.33
2018-06-05T22:02:37.490Z,1.10
2018-06-05T22:05:05.966Z,1.07
2018-06-05T22:07:34.208Z,1.00
2018-06-05T22:10:02.316Z,1.40
2018-06-05T22:12:30.393Z,1.00
2018-06-05T22:14:58.810Z,1.20
2018-06-05T22:17:27.382Z,1.10
2018-06-05T22:19:55.570Z,1.20
2018-06-05T22:22:24.114Z,1.20
2018-06-05T22:24:52.801Z,1.03
2018-06-05T22:27:21.044Z,1.33
2018-06-05T22:29:50.280Z,1.10
2018-06-05T22:32:18.722Z,1.60
2018-06-05T22:34:46.825Z,1.47
2018-06-05T22:37:15.908Z,1.20
2018-06-05T22:39:44.136Z,1.60
2018-06-05T22:42:12.695Z,1.47
2018-06-05T22:44:40.969Z,1.33
2018-06-05T22:47:09.370Z,1.50
2018-06-05T22:49:38.206Z,1.33
2018-06-05T22:52:06.423Z,1.30
2018-06-05T22:54:35.321Z,1.23
2018-06-05T22:57:03.407Z,1.80
2018-06-05T22:59:32.482Z,1.77
2018-06-05T23:02:01.931Z,1.70
2018-06-05T23:04:30.939Z,1.70
2018-06-05T23:06:59.312Z,1.70
2018-06-05T23:09:28.257Z,1.60
2018-06-05T23:11:56.427Z,1.97
2018-06-05T23:14:24.551Z,1.40
2018-06-05T23:16:52.605Z,1.90
2018-06-05T23:19:20.758Z,1.57
2018-06-05T23:21:48.903Z,1.50
2018-06-05T23:24:17.375Z,2.03
2018-06-05T23:26:45.565Z,1.53
2018-06-05T23:29:13.779Z,1.53
2018-06-05T23:31:42.599Z,1.90
2018-06-05T23:34:10.704Z,1.77
2018-06-05T23:36:39.625Z,1.63
2018-06-05T23:39:07.762Z,1.73
2018-06-05T23:41:36.178Z,1.70
2018-06-05T23:44:05.166Z,2.20
2018-06-05T23:46:33.419Z,2.13
2018-06-05T23:49:01.694Z,2.00
2018-06-05T23:51:29.902Z,2.07
2018-06-05T23:53:58.058Z,2.13
2018-06-05T23:56:29.076Z,2.23
2018-06-05T23:58:57.404Z,1.90
